createdAt,value
2023-02-11T00:04:56.606Z,11.57
2023-02-11T00:10:02.890Z,10.73
2023-02-11T00:15:07.267Z,9.98
2023-02-11T00:20:11.474Z,6.75
2023-02-11T00:25:16.059Z,9.93
2023-02-11T00:30:19.414Z,8.85
2023-02-11T00:35:22.642Z,8.18
2023-02-11T00:40:27.274Z,8.45
2023-02-11T00:45:31.008Z,8.18
2023-02-11T00:50:34.595Z,8.70
2023-02-11T00:55:39.178Z,9.48
2023-02-11T01:00:42.582Z,7.47
2023-02-11T01:05:45.716Z,8.18
2023-02-11T01:10:57.561Z,8.68
2023-02-11T01:16:01.275Z,7.07
2023-02-11T01:21:05.242Z,9.65
2023-02-11T01:26:09.877Z,6.97
2023-02-11T01:31:13.393Z,8.38
2023-02-11T01:36:16.602Z,6.63
2023-02-11T01:41:21.438Z,10.15
2023-02-11T01:46:35.217Z,8.27
2023-02-11T01:51:43.116Z,8.88
2023-02-11T01:57:09.971Z,7.95
2023-02-11T02:02:16.980Z,7.88
2023-02-11T02:07:29.689Z,7.30
2023-02-11T02:12:34.613Z,7.22
2023-02-11T02:17:47.586Z,7.63
2023-02-11T02:28:36.808Z,7.95
2023-02-11T02:33:51.382Z,7.63
2023-02-11T02:39:00.517Z,6.65
2023-02-11T02:44:04.103Z,7.32
2023-02-11T02:49:14.602Z,5.88
2023-02-11T02:54:50.482Z,5.47
2023-02-11T03:00:08.955Z,5.47
2023-02-11T03:05:19.891Z,6.95
2023-02-11T03:10:28.466Z,4.65
2023-02-11T03:15:36.300Z,5.72
2023-02-11T03:20:43.348Z,5.35
2023-02-11T03:25:52.958Z,5.45
2023-02-11T03:31:04.131Z,5.65
2023-02-11T03:36:15.417Z,5.30
2023-02-11T03:41:23.954Z,6.22
2023-02-11T03:46:32.551Z,5.90
2023-02-11T03:51:39.465Z,5.97
2023-02-11T03:56:48.405Z,5.70
2023-02-11T04:01:51.656Z,4.22
2023-02-11T04:06:57.836Z,5.78
2023-02-11T04:12:01.136Z,5.15
2023-02-11T04:17:05.097Z,4.70
2023-02-11T04:22:09.964Z,5.97
2023-02-11T04:27:13.122Z,4.90
2023-02-11T04:32:16.506Z,4.85
2023-02-11T04:37:21.396Z,4.63
2023-02-11T04:42:25.003Z,5.50
2023-02-11T04:47:28.542Z,4.20
2023-02-11T04:52:33.171Z,4.97
2023-02-11T04:57:36.503Z,5.80
2023-02-11T05:02:39.894Z,5.18
2023-02-11T05:07:44.685Z,4.10
2023-02-11T05:12:49.602Z,5.75
2023-02-11T05:17:52.860Z,5.05
2023-02-11T05:22:57.430Z,5.53
2023-02-11T05:28:00.660Z,5.65
2023-02-11T05:33:03.844Z,5.45
2023-02-11T05:38:08.507Z,6.20
2023-02-11T05:43:11.886Z,6.10
2023-02-11T05:48:15.403Z,5.78
2023-02-11T05:53:20.294Z,6.60
2023-02-11T05:58:23.584Z,5.60
2023-02-11T06:03:26.912Z,4.53
2023-02-11T06:08:31.807Z,6.32
2023-02-11T06:13:35.353Z,5.40
2023-02-11T06:18:38.512Z,6.15
2023-02-11T06:23:43.680Z,4.88
2023-02-11T06:28:47.235Z,4.80
2023-02-11T06:33:50.719Z,4.88
2023-02-11T06:38:55.366Z,4.90
2023-02-11T06:43:58.744Z,4.93
2023-02-11T06:49:02.175Z,4.85
2023-02-11T06:54:08.516Z,6.25
2023-02-11T06:59:16.340Z,4.78
2023-02-11T07:04:19.602Z,5.43
2023-02-11T07:09:24.323Z,5.40
2023-02-11T07:14:27.917Z,5.63
2023-02-11T07:19:31.269Z,4.80
2023-02-11T07:24:35.879Z,5.57
2023-02-11T07:29:39.045Z,6.55
2023-02-11T07:34:42.351Z,5.28
2023-02-11T07:39:47.171Z,6.47
2023-02-11T07:44:50.864Z,5.88
2023-02-11T07:49:56.541Z,6.65
2023-02-11T07:55:04.696Z,6.28
2023-02-11T08:00:08.926Z,5.28
2023-02-11T08:05:12.323Z,5.70
2023-02-11T08:10:17.146Z,7.18
2023-02-11T08:15:20.879Z,5.00
2023-02-11T08:20:24.298Z,6.40
2023-02-11T08:25:28.947Z,6.18
2023-02-11T08:30:32.381Z,5.78
2023-02-11T08:35:37.115Z,5.43
2023-02-11T08:40:41.815Z,5.82
2023-02-11T08:45:45.984Z,5.78
2023-02-11T08:50:49.515Z,4.90
2023-02-11T08:55:57.639Z,6.20
2023-02-11T09:01:01.086Z,5.95
2023-02-11T09:06:07.001Z,5.00
2023-02-11T09:11:12.579Z,6.22
2023-02-11T09:16:19.546Z,5.30
2023-02-11T09:21:22.840Z,5.63
2023-02-11T09:26:29.092Z,6.00
2023-02-11T09:31:34.348Z,7.03
2023-02-11T09:36:39.593Z,5.90
2023-02-11T09:42:21.141Z,6.68
2023-02-11T09:47:30.176Z,4.32
2023-02-11T09:52:41.422Z,4.97
2023-02-11T09:57:44.738Z,5.40
2023-02-11T10:03:06.316Z,5.18
2023-02-11T10:08:17.694Z,4.40
2023-02-11T10:13:42.682Z,4.85
2023-02-11T10:19:08.800Z,4.95
2023-02-11T10:24:15.770Z,4.80
2023-02-11T10:29:38.009Z,6.30
2023-02-11T10:34:43.544Z,7.68
2023-02-11T10:39:46.905Z,6.78
2023-02-11T10:44:58.780Z,6.25
2023-02-11T10:50:22.333Z,8.30
2023-02-11T11:00:38.069Z,4.82
2023-02-11T11:05:50.730Z,5.93
2023-02-11T11:11:05.229Z,6.80
2023-02-11T11:16:19.672Z,5.30
2023-02-11T11:21:32.640Z,5.93
2023-02-11T11:26:43.310Z,5.18
2023-02-11T11:31:52.901Z,6.63
2023-02-11T11:36:58.498Z,6.93
2023-02-11T11:42:05.447Z,6.00
2023-02-11T11:47:21.763Z,5.53
2023-02-11T11:52:38.848Z,5.00
2023-02-11T11:57:42.512Z,5.20
2023-02-11T12:03:08.653Z,5.03
2023-02-11T12:08:21.438Z,6.55
2023-02-11T12:13:36.097Z,5.68
2023-02-11T12:19:01.618Z,5.70
2023-02-11T12:24:44.997Z,6.55
2023-02-11T12:30:02.327Z,8.32
2023-02-11T12:35:26.347Z,7.50
2023-02-11T12:40:39.583Z,8.03
2023-02-11T12:46:02.708Z,7.95
2023-02-11T12:51:15.710Z,7.97
2023-02-11T12:56:25.422Z,6.47
2023-02-11T13:01:31.993Z,8.48
2023-02-11T13:06:40.141Z,7.72
2023-02-11T13:11:52.152Z,9.45
2023-02-11T13:16:57.157Z,7.43
2023-02-11T13:22:12.950Z,7.75
2023-02-11T13:27:34.062Z,6.68
2023-02-11T13:33:06.734Z,6.57
2023-02-11T13:38:21.615Z,7.03
2023-02-11T13:43:28.991Z,7.57
2023-02-11T13:48:37.545Z,8.02
2023-02-11T13:53:50.484Z,8.15
2023-02-11T13:58:55.176Z,8.95
2023-02-11T14:04:38.733Z,6.90
2023-02-11T14:09:42.288Z,8.60
2023-02-11T14:15:15.929Z,7.85
2023-02-11T14:20:38.444Z,9.65
2023-02-11T14:25:44.102Z,8.98
2023-02-11T14:31:01.114Z,6.65
2023-02-11T14:36:16.833Z,7.97
2023-02-11T14:41:24.347Z,9.25
2023-02-11T14:46:33.009Z,8.05
2023-02-11T14:51:39.845Z,9.02
2023-02-11T14:56:44.632Z,6.03
2023-02-11T15:01:54.714Z,7.75
2023-02-11T15:07:01.586Z,8.18
2023-02-11T15:12:05.711Z,7.18
2023-02-11T15:17:10.736Z,8.32
2023-02-11T15:22:21.469Z,8.00
2023-02-11T15:27:25.923Z,8.05
2023-02-11T15:32:30.602Z,8.93
2023-02-11T15:37:34.306Z,7.70
2023-02-11T15:42:50.893Z,8.32
2023-02-11T15:48:00.539Z,8.18
2023-02-11T15:53:18.524Z,7.22
2023-02-11T15:58:24.043Z,8.55
2023-02-11T16:03:33.118Z,7.40
2023-02-11T16:08:37.759Z,8.70
2023-02-11T16:13:47.084Z,8.75
2023-02-11T16:19:04.327Z,8.18
2023-02-11T16:24:19.027Z,8.13
2023-02-11T16:29:27.414Z,7.65
2023-02-11T16:34:32.129Z,8.60
2023-02-11T16:39:35.540Z,10.57
2023-02-11T16:44:39.298Z,9.30
2023-02-11T16:49:44.396Z,10.27
2023-02-11T16:54:47.579Z,7.72
2023-02-11T16:59:51.408Z,7.45
2023-02-11T17:04:57.503Z,8.90
2023-02-11T17:10:01.033Z,9.95
2023-02-11T17:15:07.234Z,7.88
2023-02-11T17:20:15.735Z,8.95
2023-02-11T17:25:19.558Z,10.38
2023-02-11T17:30:23.412Z,9.25
2023-02-11T17:35:28.129Z,10.25
2023-02-11T17:40:31.540Z,10.32
2023-02-11T17:45:36.198Z,8.80
2023-02-11T17:50:40.910Z,10.48
2023-02-11T17:55:44.205Z,9.48
2023-02-11T18:00:47.588Z,8.77
2023-02-11T18:05:52.618Z,8.65
2023-02-11T18:10:56.626Z,10.73
2023-02-11T18:16:04.639Z,9.48
2023-02-11T18:21:09.862Z,10.82
2023-02-11T18:26:14.138Z,7.53
2023-02-11T18:31:18.542Z,10.50
2023-02-11T18:36:24.174Z,10.35
2023-02-11T18:41:28.261Z,9.75
2023-02-11T18:46:32.027Z,7.70
2023-02-11T18:51:36.725Z,13.68
2023-02-11T18:56:39.928Z,7.60
2023-02-11T19:01:47.034Z,7.50
2023-02-11T19:06:51.983Z,12.05
2023-02-11T19:12:00.184Z,9.65
2023-02-11T19:17:05.616Z,10.63
2023-02-11T19:22:11.035Z,9.27
2023-02-11T19:27:14.226Z,12.00
2023-02-11T19:32:17.388Z,11.07
2023-02-11T19:37:22.093Z,9.20
2023-02-11T19:42:27.604Z,11.93
2023-02-11T19:47:31.408Z,9.18
2023-02-11T19:52:39.270Z,9.57
2023-02-11T19:57:42.532Z,11.52
2023-02-11T20:02:47.219Z,8.13
2023-02-11T20:07:51.882Z,10.90
2023-02-11T20:12:55.085Z,11.07
2023-02-11T20:17:58.350Z,11.27
2023-02-11T20:23:02.998Z,8.80
2023-02-11T20:28:06.563Z,8.98
2023-02-11T20:33:09.971Z,8.40
2023-02-11T20:38:14.829Z,9.80
2023-02-11T20:43:18.085Z,8.27
2023-02-11T20:48:21.349Z,9.95
2023-02-11T20:53:25.971Z,8.68
2023-02-11T20:58:29.183Z,9.90
2023-02-11T21:03:32.450Z,8.32
2023-02-11T21:08:37.726Z,9.43
2023-02-11T21:13:42.788Z,9.48
2023-02-11T21:18:46.143Z,8.23
2023-02-11T21:23:51.038Z,9.05
2023-02-11T21:28:55.288Z,8.27
2023-02-11T21:33:59.646Z,6.70
2023-02-11T21:39:06.053Z,9.10
2023-02-11T21:44:09.541Z,10.18
2023-02-11T21:49:12.841Z,8.25
2023-02-11T21:54:18.845Z,9.55
2023-02-11T21:59:22.042Z,7.25
2023-02-11T22:04:25.375Z,8.80
2023-02-11T22:09:30.490Z,7.90
2023-02-11T22:14:33.664Z,8.50
2023-02-11T22:19:37.010Z,9.55
2023-02-11T22:24:41.874Z,9.82
2023-02-11T22:29:45.375Z,9.45
2023-02-11T22:34:50.391Z,9.25
2023-02-11T22:39:56.971Z,7.93
2023-02-11T22:45:00.213Z,9.02
2023-02-11T22:50:03.376Z,9.13
2023-02-11T22:55:08.623Z,8.90
2023-02-11T23:00:13.321Z,6.53
2023-02-11T23:05:16.913Z,9.38
2023-02-11T23:10:21.812Z,9.10
2023-02-11T23:15:25.206Z,9.15
2023-02-11T23:20:28.514Z,8.73
2023-02-11T23:25:34.843Z,9.73
2023-02-11T23:30:38.373Z,9.63
2023-02-11T23:35:41.646Z,6.32
2023-02-11T23:40:46.385Z,9.38
2023-02-11T23:45:52.216Z,8.77
2023-02-11T23:50:55.698Z,7.10
2023-02-11T23:56:00.364Z,7.93
